createdAt,value
2018-12-17T00:00:32.558Z,0
2018-12-17T00:01:32.545Z,0
2018-12-17T00:02:32.529Z,0
2018-12-17T00:03:32.272Z,0
2018-12-17T00:04:32.511Z,0
2018-12-17T00:05:33.044Z,0
2018-12-17T00:06:32.482Z,0
2018-12-17T00:07:32.452Z,0
2018-12-17T00:08:39.184Z,0
2018-12-17T00:09:32.465Z,0
2018-12-17T00:10:32.397Z,0
2018-12-17T00:11:32.383Z,0
2018-12-17T00:12:32.367Z,0
2018-12-17T00:13:32.357Z,0
2018-12-17T00:14:32.095Z,0
2018-12-17T00:15:32.320Z,0
2018-12-17T00:16:32.300Z,0
2018-12-17T00:17:32.046Z,0
2018-12-17T00:18:32.326Z,0
2018-12-17T00:19:32.260Z,0
2018-12-17T00:20:32.242Z,0
2018-12-17T00:21:31.984Z,0
2018-12-17T00:22:32.213Z,0
2018-12-17T00:23:32.192Z,0
2018-12-17T00:24:32.179Z,0
2018-12-17T00:25:32.169Z,0
2018-12-17T00:26:32.144Z,0
2018-12-17T00:27:32.127Z,0
2018-12-17T00:28:32.118Z,0
2018-12-17T00:29:32.125Z,0
2018-12-17T00:30:32.084Z,0
2018-12-17T00:31:32.067Z,0
2018-12-17T00:32:32.051Z,0
2018-12-17T00:33:32.035Z,0
2018-12-17T00:34:32.023Z,0
2018-12-17T00:35:32.007Z,0
2018-12-17T00:36:31.990Z,0
2018-12-17T00:37:31.969Z,0
2018-12-17T00:38:31.956Z,0
2018-12-17T00:39:32.241Z,0
2018-12-17T00:40:31.935Z,0
2018-12-17T00:41:31.912Z,0
2018-12-17T00:42:31.895Z,0
2018-12-17T00:43:31.882Z,0
2018-12-17T00:44:31.865Z,0
2018-12-17T00:45:31.846Z,0
2018-12-17T00:46:31.832Z,0
2018-12-17T00:47:31.818Z,0
2018-12-17T00:48:31.803Z,0
2018-12-17T00:49:31.781Z,0
2018-12-17T00:50:31.767Z,0
2018-12-17T00:51:31.751Z,0
2018-12-17T00:52:31.739Z,0
2018-12-17T00:53:31.725Z,0
2018-12-17T00:54:31.715Z,0
2018-12-17T00:55:31.691Z,0
2018-12-17T00:56:31.676Z,0
2018-12-17T00:57:31.656Z,0
2018-12-17T00:58:31.647Z,0
2018-12-17T00:59:31.621Z,0
2018-12-17T01:00:31.610Z,0
2018-12-17T01:01:31.597Z,0
2018-12-17T01:02:31.584Z,0
2018-12-17T01:03:31.567Z,0
2018-12-17T01:04:31.554Z,0
2018-12-17T01:05:31.535Z,0
2018-12-17T01:06:31.520Z,0
2018-12-17T01:07:31.503Z,0
2018-12-17T01:08:31.489Z,0
2018-12-17T01:09:31.476Z,0
2018-12-17T01:10:31.453Z,0
2018-12-17T01:11:31.438Z,0
2018-12-17T01:12:31.421Z,0
2018-12-17T01:13:31.414Z,0
2018-12-17T01:14:31.390Z,0
2018-12-17T01:15:31.380Z,0
2018-12-17T01:16:31.376Z,0
2018-12-17T01:17:31.343Z,0
2018-12-17T01:18:31.328Z,0
2018-12-17T01:19:31.311Z,0
2018-12-17T01:20:31.356Z,0
2018-12-17T01:21:31.317Z,0
2018-12-17T01:22:31.266Z,0
2018-12-17T01:23:31.281Z,0
2018-12-17T01:24:31.237Z,0
2018-12-17T01:25:31.218Z,0
2018-12-17T01:26:31.204Z,0
2018-12-17T01:27:31.189Z,0
2018-12-17T01:28:31.173Z,0
2018-12-17T01:29:31.155Z,0
2018-12-17T01:30:31.141Z,0
2018-12-17T01:31:31.127Z,0
2018-12-17T01:32:31.106Z,0
2018-12-17T01:33:31.090Z,0
2018-12-17T01:34:31.078Z,0
2018-12-17T01:35:31.073Z,0
2018-12-17T01:36:31.047Z,0
2018-12-17T01:37:31.028Z,0
2018-12-17T01:38:31.024Z,0
2018-12-17T01:39:30.760Z,0
2018-12-17T01:40:30.984Z,0
2018-12-17T01:41:30.975Z,0
2018-12-17T01:42:30.956Z,0
2018-12-17T01:43:30.940Z,0
2018-12-17T01:44:30.922Z,0
2018-12-17T01:45:30.910Z,0
2018-12-17T01:46:30.895Z,0
2018-12-17T01:47:30.880Z,0
2018-12-17T01:48:30.861Z,0
2018-12-17T01:49:30.841Z,0
2018-12-17T01:50:30.827Z,0
2018-12-17T01:51:30.818Z,0
2018-12-17T01:52:30.799Z,0
2018-12-17T01:53:30.778Z,0
2018-12-17T01:54:30.765Z,0
2018-12-17T01:55:30.747Z,0
2018-12-17T01:56:30.736Z,0
2018-12-17T01:57:30.717Z,0
2018-12-17T01:58:36.409Z,0
2018-12-17T01:59:30.692Z,0
2018-12-17T02:00:30.674Z,0
2018-12-17T02:01:30.654Z,0
2018-12-17T02:02:30.639Z,0
2018-12-17T02:03:30.628Z,0
2018-12-17T02:04:30.627Z,0
2018-12-17T02:05:30.600Z,0
2018-12-17T02:06:30.589Z,0
2018-12-17T02:07:30.578Z,0
2018-12-17T02:08:30.551Z,0
2018-12-17T02:09:30.530Z,0
2018-12-17T02:10:30.519Z,0
2018-12-17T02:11:30.508Z,0
2018-12-17T02:12:30.489Z,0
2018-12-17T02:13:30.468Z,0
2018-12-17T02:14:30.455Z,0
2018-12-17T02:15:30.438Z,0
2018-12-17T02:16:30.422Z,0
2018-12-17T02:17:30.407Z,0
2018-12-17T02:18:30.388Z,0
2018-12-17T02:19:30.378Z,0
2018-12-17T02:20:30.368Z,0
2018-12-17T02:21:30.418Z,0
2018-12-17T02:22:30.327Z,0
2018-12-17T02:23:30.068Z,0
2018-12-17T02:24:30.312Z,0
2018-12-17T02:25:30.276Z,0
2018-12-17T02:26:30.268Z,0
2018-12-17T02:27:30.336Z,0
2018-12-17T02:28:35.918Z,0
2018-12-17T02:29:30.224Z,0
2018-12-17T02:30:30.210Z,0
2018-12-17T02:31:30.197Z,0
2018-12-17T02:32:30.177Z,0
2018-12-17T02:33:30.162Z,0
2018-12-17T02:34:30.140Z,0
2018-12-17T02:35:32.282Z,0
2018-12-17T02:36:30.109Z,0
2018-12-17T02:37:30.097Z,0
2018-12-17T02:38:30.077Z,0
2018-12-17T02:39:29.813Z,0
2018-12-17T02:40:29.813Z,0
2018-12-17T02:41:30.030Z,0
2018-12-17T02:42:30.195Z,0
2018-12-17T02:43:29.995Z,0
2018-12-17T02:44:29.988Z,0
2018-12-17T02:45:29.958Z,0
2018-12-17T02:46:30.014Z,0
2018-12-17T02:47:29.928Z,0
2018-12-17T02:48:29.911Z,0
2018-12-17T02:49:29.941Z,0
2018-12-17T02:50:29.879Z,0
2018-12-17T02:51:29.873Z,0
2018-12-17T02:52:29.853Z,0
2018-12-17T02:53:29.844Z,0
2018-12-17T02:54:29.829Z,0
2018-12-17T02:55:29.801Z,0
2018-12-17T02:56:29.804Z,0
2018-12-17T02:57:29.777Z,0
2018-12-17T02:58:29.748Z,0
2018-12-17T02:59:29.734Z,0
2018-12-17T03:00:29.752Z,0
2018-12-17T03:01:29.740Z,0
2018-12-17T03:02:29.737Z,0
2018-12-17T03:03:29.667Z,0
2018-12-17T03:04:29.667Z,0
2018-12-17T03:05:29.635Z,0
2018-12-17T03:06:29.377Z,0
2018-12-17T03:07:29.606Z,0
2018-12-17T03:08:29.601Z,0
2018-12-17T03:09:29.345Z,0
2018-12-17T03:10:29.588Z,0
2018-12-17T03:11:29.550Z,0
2018-12-17T03:12:29.532Z,4
2018-12-17T03:13:29.505Z,4
2018-12-17T03:14:29.508Z,4
2018-12-17T03:15:29.481Z,4
2018-12-17T03:16:29.243Z,4
2018-12-17T03:17:29.457Z,4
2018-12-17T03:18:29.444Z,0
2018-12-17T03:19:29.455Z,0
2018-12-17T03:20:29.398Z,0
2018-12-17T03:21:29.142Z,0
2018-12-17T03:22:29.452Z,0
2018-12-17T03:23:29.354Z,0
2018-12-17T03:24:29.342Z,0
2018-12-17T03:25:29.331Z,0
2018-12-17T03:26:29.303Z,0
2018-12-17T03:27:29.293Z,0
2018-12-17T03:28:29.304Z,0
2018-12-17T03:29:29.256Z,0
2018-12-17T03:30:29.253Z,0
2018-12-17T03:31:29.233Z,0
2018-12-17T03:32:29.226Z,0
2018-12-17T03:33:29.218Z,0
2018-12-17T03:34:29.177Z,0
2018-12-17T03:35:29.161Z,0
2018-12-17T03:36:29.155Z,0
2018-12-17T03:37:29.130Z,0
2018-12-17T03:38:29.124Z,0
2018-12-17T03:39:29.098Z,0
2018-12-17T03:40:29.089Z,0
2018-12-17T03:41:29.063Z,0
2018-12-17T03:42:29.053Z,0
2018-12-17T03:43:29.036Z,0
2018-12-17T03:44:29.018Z,0
2018-12-17T03:45:29.004Z,0
2018-12-17T03:46:28.987Z,0
2018-12-17T03:47:28.979Z,0
2018-12-17T03:48:28.954Z,0
2018-12-17T03:49:28.950Z,0
2018-12-17T03:50:28.924Z,0
2018-12-17T03:51:28.911Z,0
2018-12-17T03:52:28.893Z,0
2018-12-17T03:53:28.889Z,0
2018-12-17T03:54:28.864Z,0
2018-12-17T03:55:28.878Z,0
2018-12-17T03:56:28.836Z,0
2018-12-17T03:57:28.814Z,0
2018-12-17T03:58:28.805Z,0
2018-12-17T03:59:28.785Z,0
2018-12-17T04:00:28.780Z,0
2018-12-17T04:01:28.749Z,0
2018-12-17T04:02:28.739Z,0
2018-12-17T04:03:29.355Z,0
2018-12-17T04:04:28.724Z,0
2018-12-17T04:05:28.696Z,0
2018-12-17T04:06:28.673Z,0
2018-12-17T04:07:28.673Z,0
2018-12-17T04:08:28.645Z,0
2018-12-17T04:09:28.631Z,0
2018-12-17T04:10:28.614Z,0
2018-12-17T04:11:28.598Z,0
2018-12-17T04:12:28.582Z,0
2018-12-17T04:13:28.562Z,0
2018-12-17T04:14:28.563Z,0
2018-12-17T04:15:28.540Z,0
2018-12-17T04:16:28.517Z,0
2018-12-17T04:17:28.506Z,0
2018-12-17T04:18:28.483Z,0
2018-12-17T04:19:28.497Z,0
2018-12-17T04:20:28.454Z,0
2018-12-17T04:21:28.461Z,0
2018-12-17T04:22:28.428Z,0
2018-12-17T04:23:28.409Z,0
2018-12-17T04:24:28.394Z,0
2018-12-17T04:25:28.377Z,0
2018-12-17T04:26:28.362Z,0
2018-12-17T04:27:28.359Z,0
2018-12-17T04:28:28.349Z,0
2018-12-17T04:29:28.333Z,0
2018-12-17T04:30:28.301Z,0
2018-12-17T04:31:30.005Z,0
2018-12-17T04:32:28.281Z,0
2018-12-17T04:33:28.046Z,0
2018-12-17T04:34:28.241Z,0
2018-12-17T04:35:28.234Z,0
2018-12-17T04:36:28.216Z,0
2018-12-17T04:37:28.208Z,0
2018-12-17T04:38:28.176Z,0
2018-12-17T04:39:28.217Z,0
2018-12-17T04:40:28.158Z,0
2018-12-17T04:41:28.131Z,0
2018-12-17T04:42:28.170Z,0
2018-12-17T04:43:28.150Z,0
2018-12-17T04:44:27.840Z,0
2018-12-17T04:45:28.067Z,0
2018-12-17T04:46:28.055Z,0
2018-12-17T04:47:28.033Z,0
2018-12-17T04:48:28.020Z,0
2018-12-17T04:49:28.013Z,0
2018-12-17T04:50:27.991Z,0
2018-12-17T04:51:27.977Z,0
2018-12-17T04:52:27.966Z,0
2018-12-17T04:53:27.948Z,0
2018-12-17T04:54:27.985Z,0
2018-12-17T04:55:27.920Z,0
2018-12-17T04:56:27.905Z,0
2018-12-17T04:57:27.897Z,0
2018-12-17T04:58:27.867Z,0
2018-12-17T04:59:27.860Z,0
2018-12-17T05:00:27.596Z,0
2018-12-17T05:01:27.821Z,0
2018-12-17T05:02:27.811Z,0
2018-12-17T05:03:27.790Z,0
2018-12-17T05:04:27.794Z,0
2018-12-17T05:05:27.759Z,0
2018-12-17T05:06:27.742Z,0
2018-12-17T05:07:27.728Z,0
2018-12-17T05:08:27.719Z,0
2018-12-17T05:09:27.705Z,0
2018-12-17T05:10:27.682Z,0
2018-12-17T05:11:27.667Z,0
2018-12-17T05:12:27.653Z,0
2018-12-17T05:13:27.640Z,0
2018-12-17T05:14:27.632Z,0
2018-12-17T05:15:27.607Z,0
2018-12-17T05:16:27.596Z,0
2018-12-17T05:17:27.577Z,0
2018-12-17T05:18:27.565Z,0
2018-12-17T05:19:27.550Z,0
2018-12-17T05:20:27.535Z,0
2018-12-17T05:21:27.511Z,0
2018-12-17T05:22:27.496Z,0
2018-12-17T05:23:27.483Z,0
2018-12-17T05:24:27.467Z,0
2018-12-17T05:25:27.450Z,0
2018-12-17T05:26:27.516Z,0
2018-12-17T05:27:27.420Z,0
2018-12-17T05:28:27.411Z,0
2018-12-17T05:29:28.810Z,0
2018-12-17T05:30:27.387Z,0
2018-12-17T05:31:27.368Z,0
2018-12-17T05:32:27.345Z,0
2018-12-17T05:33:27.332Z,0
2018-12-17T05:34:27.335Z,0
2018-12-17T05:35:27.296Z,0
2018-12-17T05:36:27.286Z,0
2018-12-17T05:37:27.271Z,0
2018-12-17T05:38:27.256Z,0
2018-12-17T05:39:27.253Z,0
2018-12-17T05:40:27.228Z,0
2018-12-17T05:41:27.205Z,0
2018-12-17T05:42:27.196Z,0
2018-12-17T05:43:27.189Z,0
2018-12-17T05:44:27.173Z,0
2018-12-17T05:45:27.159Z,0
2018-12-17T05:46:27.141Z,0
2018-12-17T05:47:27.113Z,0
2018-12-17T05:48:27.099Z,0
2018-12-17T05:49:27.084Z,0
2018-12-17T05:50:27.081Z,0
2018-12-17T05:51:27.059Z,0
2018-12-17T05:52:27.052Z,0
2018-12-17T05:53:27.029Z,0
2018-12-17T05:54:27.012Z,0
2018-12-17T05:55:26.999Z,0
2018-12-17T05:56:26.984Z,0
2018-12-17T05:57:26.961Z,0
2018-12-17T05:58:27.035Z,0
2018-12-17T05:59:33.239Z,0
2018-12-17T06:00:26.913Z,0
2018-12-17T06:01:26.898Z,0
2018-12-17T06:02:26.889Z,0
2018-12-17T06:03:26.873Z,0
2018-12-17T06:04:26.871Z,0
2018-12-17T06:05:26.839Z,0
2018-12-17T06:06:26.824Z,0
2018-12-17T06:07:26.807Z,0
2018-12-17T06:08:26.795Z,0
2018-12-17T06:09:26.782Z,0
2018-12-17T06:10:26.769Z,20
2018-12-17T06:11:27.519Z,32
2018-12-17T06:12:26.731Z,0
2018-12-17T06:13:26.718Z,0
2018-12-17T06:14:26.698Z,0
2018-12-17T06:15:26.688Z,0
2018-12-17T06:16:26.687Z,0
2018-12-17T06:17:26.658Z,0
2018-12-17T06:18:26.639Z,0
2018-12-17T06:19:26.625Z,0
2018-12-17T06:20:26.610Z,0
2018-12-17T06:21:26.593Z,0
2018-12-17T06:22:26.576Z,0
2018-12-17T06:23:26.598Z,0
2018-12-17T06:24:26.550Z,0
2018-12-17T06:25:26.552Z,0
2018-12-17T06:26:26.515Z,0
2018-12-17T06:27:26.506Z,0
2018-12-17T06:28:26.567Z,0
2018-12-17T06:29:26.478Z,0
2018-12-17T06:30:26.457Z,0
2018-12-17T06:31:26.440Z,0
2018-12-17T06:32:26.271Z,0
2018-12-17T06:33:26.424Z,4
2018-12-17T06:34:26.407Z,4
2018-12-17T06:35:26.384Z,4
2018-12-17T06:36:26.367Z,4
2018-12-17T06:37:26.366Z,4
2018-12-17T06:38:26.334Z,4
2018-12-17T06:39:26.319Z,4
2018-12-17T06:40:26.309Z,4
2018-12-17T06:41:26.297Z,8
2018-12-17T06:42:26.036Z,24
2018-12-17T06:43:26.266Z,40
2018-12-17T06:44:26.242Z,48
2018-12-17T06:45:26.240Z,52
2018-12-17T06:46:26.217Z,52
2018-12-17T06:47:26.199Z,56
2018-12-17T06:48:26.184Z,60
2018-12-17T06:49:26.167Z,60
2018-12-17T06:50:26.154Z,68
2018-12-17T06:51:26.134Z,72
2018-12-17T06:52:26.125Z,76
2018-12-17T06:53:26.108Z,76
2018-12-17T06:54:26.101Z,84
2018-12-17T06:55:26.105Z,52
2018-12-17T06:56:26.061Z,60
2018-12-17T06:57:26.047Z,64
2018-12-17T06:58:26.033Z,72
2018-12-17T06:59:26.017Z,80
2018-12-17T07:00:26.011Z,88
2018-12-17T07:01:25.995Z,96
2018-12-17T07:02:25.732Z,104
2018-12-17T07:03:25.961Z,116
2018-12-17T07:04:25.948Z,124
2018-12-17T07:05:25.928Z,132
2018-12-17T07:06:25.910Z,144
2018-12-17T07:07:25.898Z,152
2018-12-17T07:08:25.882Z,160
2018-12-17T07:09:25.867Z,172
2018-12-17T07:10:25.872Z,180
2018-12-17T07:11:25.841Z,188
2018-12-17T07:12:25.833Z,200
2018-12-17T07:13:25.806Z,212
2018-12-17T07:14:25.832Z,228
2018-12-17T07:15:25.778Z,240
2018-12-17T07:16:25.771Z,252
2018-12-17T07:17:25.756Z,264
2018-12-17T07:18:25.732Z,280
2018-12-17T07:19:25.718Z,292
2018-12-17T07:20:25.703Z,308
2018-12-17T07:21:25.720Z,324
2018-12-17T07:22:25.675Z,348
2018-12-17T07:23:25.660Z,364
2018-12-17T07:24:25.646Z,384
2018-12-17T07:25:25.627Z,388
2018-12-17T07:26:25.621Z,404
2018-12-17T07:27:25.620Z,424
2018-12-17T07:28:25.593Z,444
2018-12-17T07:29:25.570Z,500
2018-12-17T07:30:25.557Z,532
2018-12-17T07:31:25.540Z,556
2018-12-17T07:32:25.848Z,588
2018-12-17T07:33:25.522Z,612
2018-12-17T07:34:25.497Z,636
2018-12-17T07:35:25.487Z,656
2018-12-17T07:36:25.473Z,676
2018-12-17T07:37:25.454Z,708
2018-12-17T07:38:25.438Z,740
2018-12-17T07:39:25.418Z,768
2018-12-17T07:40:25.406Z,800
2018-12-17T07:41:25.396Z,844
2018-12-17T07:42:25.379Z,884
2018-12-17T07:43:25.366Z,920
2018-12-17T07:44:25.357Z,964
2018-12-17T07:45:25.332Z,1036
2018-12-17T07:46:25.316Z,1116
2018-12-17T07:47:25.306Z,1180
2018-12-17T07:48:25.290Z,1244
2018-12-17T07:49:25.273Z,1296
2018-12-17T07:50:25.257Z,1348
2018-12-17T07:51:25.245Z,1388
2018-12-17T07:52:25.228Z,1412
2018-12-17T07:53:25.227Z,1440
2018-12-17T07:54:25.198Z,1460
2018-12-17T07:55:25.195Z,1488
2018-12-17T07:56:25.174Z,1524
2018-12-17T07:57:25.160Z,1600
2018-12-17T07:58:25.144Z,1692
2018-12-17T07:59:25.131Z,1752
2018-12-17T08:00:25.115Z,1808
2018-12-17T08:01:25.103Z,1856
2018-12-17T08:02:25.096Z,1900
2018-12-17T08:03:25.071Z,2012
2018-12-17T08:04:25.078Z,2148
2018-12-17T08:05:25.039Z,2236
2018-12-17T08:06:25.032Z,2312
2018-12-17T08:07:25.014Z,2328
2018-12-17T08:08:25.005Z,2268
2018-12-17T08:09:24.984Z,2196
2018-12-17T08:10:24.973Z,2144
2018-12-17T08:11:24.961Z,2148
2018-12-17T08:12:24.943Z,2192
2018-12-17T08:13:24.975Z,2212
2018-12-17T08:14:24.920Z,2188
2018-12-17T08:15:24.902Z,2144
2018-12-17T08:16:24.897Z,2032
2018-12-17T08:17:24.873Z,1948
2018-12-17T08:18:24.863Z,2100
2018-12-17T08:19:24.847Z,2400
2018-12-17T08:20:24.841Z,2576
2018-12-17T08:21:24.822Z,2640
2018-12-17T08:22:24.559Z,2656
2018-12-17T08:23:24.789Z,2684
2018-12-17T08:24:24.780Z,2680
2018-12-17T08:25:24.522Z,2684
2018-12-17T08:26:24.749Z,2716
2018-12-17T08:27:24.735Z,2712
2018-12-17T08:28:24.723Z,2724
2018-12-17T08:29:24.706Z,2772
2018-12-17T08:30:24.696Z,2872
2018-12-17T08:31:24.438Z,2900
2018-12-17T08:32:24.664Z,2924
2018-12-17T08:33:24.656Z,3020
2018-12-17T08:34:24.634Z,3084
2018-12-17T08:35:24.620Z,3072
2018-12-17T08:36:24.613Z,3116
2018-12-17T08:37:24.593Z,3220
2018-12-17T08:38:24.588Z,3192
2018-12-17T08:39:24.647Z,3208
2018-12-17T08:40:24.552Z,3224
2018-12-17T08:41:24.538Z,3200
2018-12-17T08:42:24.526Z,3232
2018-12-17T08:43:24.514Z,3240
2018-12-17T08:44:24.495Z,3204
2018-12-17T08:45:24.241Z,3208
2018-12-17T08:46:24.467Z,3236
2018-12-17T08:47:24.454Z,3292
2018-12-17T08:48:24.437Z,3308
2018-12-17T08:49:24.424Z,3288
2018-12-17T08:50:24.412Z,3288
2018-12-17T08:51:24.401Z,3312
2018-12-17T08:52:24.385Z,3332
2018-12-17T08:53:24.378Z,3372
2018-12-17T08:54:24.364Z,3432
2018-12-17T08:55:24.349Z,3460
2018-12-17T08:56:24.336Z,3464
2018-12-17T08:57:24.321Z,3524
2018-12-17T08:58:24.301Z,3552
2018-12-17T08:59:24.291Z,3504
2018-12-17T09:00:24.278Z,3472
2018-12-17T09:01:24.262Z,3448
2018-12-17T09:02:24.252Z,3460
2018-12-17T09:03:24.235Z,3492
2018-12-17T09:04:24.228Z,3548
2018-12-17T09:05:24.210Z,3564
2018-12-17T09:06:24.197Z,3592
2018-12-17T09:07:24.187Z,3688
2018-12-17T09:08:24.167Z,3660
2018-12-17T09:09:24.168Z,3756
2018-12-17T09:10:24.139Z,3916
2018-12-17T09:11:24.127Z,3680
2018-12-17T09:12:24.115Z,3808
2018-12-17T09:13:24.105Z,3832
2018-12-17T09:14:24.097Z,3760
2018-12-17T09:15:24.076Z,3736
2018-12-17T09:16:24.061Z,3688
2018-12-17T09:17:24.049Z,3680
2018-12-17T09:18:24.032Z,3744
2018-12-17T09:19:24.027Z,3816
2018-12-17T09:20:24.018Z,3868
2018-12-17T09:21:24.022Z,3912
2018-12-17T09:22:23.979Z,3976
2018-12-17T09:23:23.969Z,4020
2018-12-17T09:24:23.953Z,4036
2018-12-17T09:25:23.960Z,4100
2018-12-17T09:26:23.966Z,4152
2018-12-17T09:27:23.915Z,4164
2018-12-17T09:28:23.903Z,4116
2018-12-17T09:29:23.942Z,4048
2018-12-17T09:30:25.749Z,4096
2018-12-17T09:31:23.860Z,4204
2018-12-17T09:32:23.855Z,4260
2018-12-17T09:33:23.841Z,4280
2018-12-17T09:34:23.828Z,4272
2018-12-17T09:35:23.816Z,4312
2018-12-17T09:36:23.801Z,4440
2018-12-17T09:37:23.787Z,4488
2018-12-17T09:38:23.771Z,4436
2018-12-17T09:39:23.769Z,4276
2018-12-17T09:40:23.744Z,4372
2018-12-17T09:41:23.733Z,4340
2018-12-17T09:42:23.724Z,4288
2018-12-17T09:43:23.710Z,4284
2018-12-17T09:44:23.700Z,4344
2018-12-17T09:45:23.692Z,4420
2018-12-17T09:46:23.670Z,4520
2018-12-17T09:47:23.663Z,4592
2018-12-17T09:48:23.650Z,4736
2018-12-17T09:49:23.639Z,4908
2018-12-17T09:50:23.969Z,5088
2018-12-17T09:51:26.818Z,5204
2018-12-17T09:52:23.603Z,5268
2018-12-17T09:53:23.585Z,5332
2018-12-17T09:54:23.572Z,5264
2018-12-17T09:55:23.557Z,5048
2018-12-17T09:56:23.547Z,5224
2018-12-17T09:57:23.533Z,5392
2018-12-17T09:58:23.524Z,5592
2018-12-17T09:59:23.509Z,5544
2018-12-17T10:00:30.055Z,5312
2018-12-17T10:01:23.482Z,5240
2018-12-17T10:02:23.470Z,5244
2018-12-17T10:03:23.458Z,5272
2018-12-17T10:04:23.456Z,5432
2018-12-17T10:05:23.432Z,5580
2018-12-17T10:06:23.423Z,5640
2018-12-17T10:07:24.614Z,5672
2018-12-17T10:08:23.394Z,5724
2018-12-17T10:09:23.384Z,5788
2018-12-17T10:10:23.369Z,5760
2018-12-17T10:11:23.361Z,5716
2018-12-17T10:12:23.343Z,5676
2018-12-17T10:13:23.335Z,5712
2018-12-17T10:14:23.332Z,5732
2018-12-17T10:15:23.324Z,5676
2018-12-17T10:16:23.295Z,5556
2018-12-17T10:17:23.284Z,5452
2018-12-17T10:18:23.272Z,5476
2018-12-17T10:19:23.265Z,5608
2018-12-17T10:20:23.262Z,5792
2018-12-17T10:21:23.237Z,5956
2018-12-17T10:22:23.227Z,6024
2018-12-17T10:23:22.974Z,6012
2018-12-17T10:24:23.201Z,5956
2018-12-17T10:25:23.189Z,6032
2018-12-17T10:26:23.178Z,6008
2018-12-17T10:27:23.578Z,5924
2018-12-17T10:28:23.153Z,5920
2018-12-17T10:29:23.140Z,5852
2018-12-17T10:30:23.132Z,5720
2018-12-17T10:31:23.186Z,5752
2018-12-17T10:32:23.104Z,5832
2018-12-17T10:33:23.142Z,5832
2018-12-17T10:34:23.087Z,5756
2018-12-17T10:35:23.071Z,5684
2018-12-17T10:36:23.056Z,5624
2018-12-17T10:37:23.048Z,5584
2018-12-17T10:38:23.041Z,5608
2018-12-17T10:39:23.023Z,5716
2018-12-17T10:40:23.026Z,5896
2018-12-17T10:41:22.999Z,6072
2018-12-17T10:42:22.993Z,6108
2018-12-17T10:43:22.974Z,6072
2018-12-17T10:44:23.018Z,6080
2018-12-17T10:45:22.952Z,5948
2018-12-17T10:46:22.945Z,5840
2018-12-17T10:47:22.942Z,5864
2018-12-17T10:48:22.918Z,5968
2018-12-17T10:49:22.906Z,6052
2018-12-17T10:50:22.897Z,6104
2018-12-17T10:51:22.880Z,6092
2018-12-17T10:52:22.871Z,6096
2018-12-17T10:53:22.860Z,5968
2018-12-17T10:54:22.846Z,5880
2018-12-17T10:55:22.836Z,5808
2018-12-17T10:56:22.826Z,5612
2018-12-17T10:57:22.806Z,5304
2018-12-17T10:58:22.806Z,5416
2018-12-17T10:59:22.793Z,5520
2018-12-17T11:00:22.789Z,5392
2018-12-17T11:01:22.762Z,5448
2018-12-17T11:02:22.752Z,5460
2018-12-17T11:03:22.738Z,5392
2018-12-17T11:04:22.732Z,5328
2018-12-17T11:05:22.725Z,5180
2018-12-17T11:06:22.704Z,5208
2018-12-17T11:07:22.699Z,5024
2018-12-17T11:08:22.681Z,4744
2018-12-17T11:09:22.667Z,4708
2018-12-17T11:10:22.662Z,4708
2018-12-17T11:11:22.647Z,4536
2018-12-17T11:12:22.641Z,4356
2018-12-17T11:13:22.634Z,4220
2018-12-17T11:14:22.620Z,4136
2018-12-17T11:15:22.611Z,4124
2018-12-17T11:16:22.595Z,4136
2018-12-17T11:17:22.604Z,4120
2018-12-17T11:18:22.575Z,4160
2018-12-17T11:19:22.556Z,4328
2018-12-17T11:20:22.543Z,4236
2018-12-17T11:21:22.603Z,3992
2018-12-17T11:22:22.522Z,3896
2018-12-17T11:23:22.902Z,3848
2018-12-17T11:24:22.590Z,3612
2018-12-17T11:25:22.487Z,3452
2018-12-17T11:26:22.476Z,3640
2018-12-17T11:27:22.473Z,4000
2018-12-17T11:28:22.452Z,4424
2018-12-17T11:29:22.446Z,4944
2018-12-17T11:30:22.433Z,5520
2018-12-17T11:31:22.419Z,6064
2018-12-17T11:32:22.407Z,6008
2018-12-17T11:33:22.435Z,5668
2018-12-17T11:34:22.629Z,5536
2018-12-17T11:35:22.366Z,5284
2018-12-17T11:36:22.359Z,4988
2018-12-17T11:37:22.343Z,4708
2018-12-17T11:38:22.333Z,4512
2018-12-17T11:39:22.319Z,4296
2018-12-17T11:40:22.314Z,4256
2018-12-17T11:41:22.296Z,4300
2018-12-17T11:42:22.287Z,4288
2018-12-17T11:43:22.329Z,4424
2018-12-17T11:44:22.264Z,4736
2018-12-17T11:45:22.254Z,4928
2018-12-17T11:46:22.240Z,5036
2018-12-17T11:47:22.226Z,5120
2018-12-17T11:48:22.218Z,5192
2018-12-17T11:49:22.209Z,5248
2018-12-17T11:50:22.197Z,5372
2018-12-17T11:51:22.179Z,5412
2018-12-17T11:52:22.170Z,5468
2018-12-17T11:53:22.164Z,5456
2018-12-17T11:54:22.147Z,5396
2018-12-17T11:55:22.130Z,5340
2018-12-17T11:56:22.128Z,5272
2018-12-17T11:57:22.158Z,5140
2018-12-17T11:58:22.103Z,5040
2018-12-17T11:59:22.088Z,4940
2018-12-17T12:00:22.081Z,4964
2018-12-17T12:01:22.064Z,4800
2018-12-17T12:02:22.054Z,4580
2018-12-17T12:03:22.037Z,4432
2018-12-17T12:04:22.026Z,4384
2018-12-17T12:05:22.267Z,4240
2018-12-17T12:06:22.006Z,4056
2018-12-17T12:07:21.995Z,3996
2018-12-17T12:08:21.981Z,3824
2018-12-17T12:09:23.281Z,3684
2018-12-17T12:10:22.047Z,3788
2018-12-17T12:11:21.942Z,4024
2018-12-17T12:12:21.930Z,4332
2018-12-17T12:13:21.929Z,4536
2018-12-17T12:14:21.910Z,4536
2018-12-17T12:15:21.901Z,4468
2018-12-17T12:16:21.901Z,4392
2018-12-17T12:17:21.893Z,4288
2018-12-17T12:18:21.864Z,4364
2018-12-17T12:19:21.849Z,4568
2018-12-17T12:20:21.835Z,4752
2018-12-17T12:21:21.825Z,5016
2018-12-17T12:22:21.812Z,5004
2018-12-17T12:23:21.877Z,4780
2018-12-17T12:24:21.800Z,4672
2018-12-17T12:25:21.848Z,4800
2018-12-17T12:26:21.769Z,4992
2018-12-17T12:27:21.758Z,5036
2018-12-17T12:28:21.745Z,5036
2018-12-17T12:29:21.729Z,5008
2018-12-17T12:30:21.720Z,4960
2018-12-17T12:31:21.709Z,4932
2018-12-17T12:32:21.698Z,4928
2018-12-17T12:33:21.693Z,4880
2018-12-17T12:34:21.672Z,4692
2018-12-17T12:35:21.661Z,4508
2018-12-17T12:36:21.653Z,4328
2018-12-17T12:37:21.645Z,4208
2018-12-17T12:38:21.623Z,4264
2018-12-17T12:39:21.613Z,4240
2018-12-17T12:40:21.601Z,4068
2018-12-17T12:41:21.587Z,3956
2018-12-17T12:42:21.573Z,3840
2018-12-17T12:43:21.568Z,3772
2018-12-17T12:44:21.567Z,3940
2018-12-17T12:45:21.539Z,4196
2018-12-17T12:46:21.548Z,4396
2018-12-17T12:47:21.527Z,4528
2018-12-17T12:48:21.515Z,4540
2018-12-17T12:49:21.492Z,4284
2018-12-17T12:50:21.483Z,4044
2018-12-17T12:51:21.469Z,3812
2018-12-17T12:52:21.455Z,3660
2018-12-17T12:53:21.449Z,3632
2018-12-17T12:54:21.433Z,3568
2018-12-17T12:55:21.421Z,3368
2018-12-17T12:56:21.410Z,3208
2018-12-17T12:57:21.404Z,3100
2018-12-17T12:58:21.387Z,3036
2018-12-17T12:59:21.371Z,2912
2018-12-17T13:00:21.367Z,2648
2018-12-17T13:01:21.357Z,2592
2018-12-17T13:02:21.339Z,2436
2018-12-17T13:03:21.329Z,2240
2018-12-17T13:04:21.323Z,2204
2018-12-17T13:05:21.312Z,2344
2018-12-17T13:06:21.311Z,2460
2018-12-17T13:07:21.286Z,2524
2018-12-17T13:08:21.264Z,2508
2018-12-17T13:09:21.287Z,2420
2018-12-17T13:10:21.246Z,2296
2018-12-17T13:11:21.230Z,2212
2018-12-17T13:12:21.215Z,2200
2018-12-17T13:13:21.208Z,2248
2018-12-17T13:14:21.195Z,2336
2018-12-17T13:15:21.182Z,2412
2018-12-17T13:16:21.174Z,2376
2018-12-17T13:17:21.156Z,2360
2018-12-17T13:18:21.146Z,2376
2018-12-17T13:19:21.159Z,2332
2018-12-17T13:20:21.136Z,2276
2018-12-17T13:21:21.187Z,2216
2018-12-17T13:22:21.092Z,2144
2018-12-17T13:23:21.087Z,2032
2018-12-17T13:24:21.070Z,1948
2018-12-17T13:25:21.065Z,1876
2018-12-17T13:26:21.043Z,1816
2018-12-17T13:27:21.040Z,1780
2018-12-17T13:28:21.022Z,1836
2018-12-17T13:29:21.005Z,1880
2018-12-17T13:30:20.997Z,1860
2018-12-17T13:31:21.910Z,1808
2018-12-17T13:32:20.978Z,1772
2018-12-17T13:33:20.963Z,1768
2018-12-17T13:34:20.950Z,1832
2018-12-17T13:35:20.955Z,2004
2018-12-17T13:36:21.943Z,2188
2018-12-17T13:37:20.904Z,2208
2018-12-17T13:38:20.891Z,2144
2018-12-17T13:39:20.883Z,2040
2018-12-17T13:40:20.867Z,1916
2018-12-17T13:41:20.855Z,1796
2018-12-17T13:42:20.847Z,1712
2018-12-17T13:43:20.842Z,1696
2018-12-17T13:44:20.815Z,1704
2018-12-17T13:45:20.810Z,1680
2018-12-17T13:46:20.795Z,1648
2018-12-17T13:47:20.547Z,1624
2018-12-17T13:48:21.257Z,1652
2018-12-17T13:49:20.752Z,1716
2018-12-17T13:50:20.739Z,1732
2018-12-17T13:51:20.725Z,1720
2018-12-17T13:52:20.712Z,1716
2018-12-17T13:53:20.701Z,1744
2018-12-17T13:54:20.693Z,1716
2018-12-17T13:55:20.723Z,1652
2018-12-17T13:56:20.664Z,1612
2018-12-17T13:57:20.649Z,1584
2018-12-17T13:58:20.638Z,1528
2018-12-17T13:59:20.629Z,1464
2018-12-17T14:00:20.614Z,1456
2018-12-17T14:01:26.595Z,1440